This is the latest recevied weather packets stored in our database for station/object KC3QJO. If no packets are shown the sender has not sent any weather packets the latest 10 day(s).
| Time | Temp. | Humidity | Pressure | Rain* | Wind** | Luminosity | Snow |
|---|---|---|---|---|---|---|---|
| 1777661451 | 16.11° C | 39% | 1010 hPa | 0 mm | - | 740 W/m² | - |
| 1777660851 | 16.67° C | 40% | 1010.2 hPa | 0 mm | - | 747 W/m² | - |
| 1777656051 | 14.44° C | 44% | 1010.8 hPa | 0 mm | - | 807 W/m² | - |
| 1777655153 | 14.44° C | 49% | 1011 hPa | 0 mm | - | 812 W/m² | - |
| 1777653062 | 13.33° C | 54% | 1011.3 hPa | 0 mm | - | 802 W/m² | - |
| 1777647357 | 14.44° C | 51% | 1012.3 hPa | 0 mm | - | 735 W/m² | - |
| 1777647052 | 13.89° C | 54% | 1012.3 hPa | 0 mm | - | 728 W/m² | - |
| 1777644358 | 11.11° C | 62% | 1012.6 hPa | 0 mm | - | 601 W/m² | - |
| 1777644053 | 11.11° C | 62% | 1012.7 hPa | 0 mm | - | 550 W/m² | - |
| 1777643170 | 11.11° C | 65% | 1012.5 hPa | 0 mm | - | 469 W/m² | - |
| 1777641956 | 10.56° C | 66% | 1012.8 hPa | 0 mm | - | 432 W/m² | - |
| 1777641360 | 10° C | 66% | 1012.8 hPa | 0 mm | - | 450 W/m² | - |
| 1777641055 | 10° C | 65% | 1012.9 hPa | 0 mm | - | 381 W/m² | - |
| 1777639859 | 9.44° C | 69% | 1012.7 hPa | 0 mm | - | 434 W/m² | - |
| 1777639556 | 9.44° C | 71% | 1012.8 hPa | 0 mm | - | 422 W/m² | - |
| 1777635656 | 6.11° C | 84% | 1012.9 hPa | 0 mm | - | 227 W/m² | - |
| 1777635066 | 6.67° C | 83% | 1012.8 hPa | 0 mm | - | 204 W/m² | - |
| 1777634755 | 6.11° C | 84% | 1012.7 hPa | 0 mm | - | 188 W/m² | - |
| 1777631755 | 3.89° C | 87% | 1012.3 hPa | 0 mm | - | 42 W/m² | - |
| 1777631157 | 3.89° C | 87% | 1012.5 hPa | 0 mm | - | 28 W/m² | - |
| 1777628155 | 3.89° C | 86% | 1012.1 hPa | 0 mm | - | 0 W/m² | - |
| 1777627259 | 3.89° C | 86% | 1011.9 hPa | 0 mm | - | 0 W/m² | - |
| 1777626957 | 3.89° C | 85% | 1011.9 hPa | 0 mm | - | 0 W/m² | - |
| 1777626651 | 3.89° C | 85% | 1011.7 hPa | 0 mm | - | 0 W/m² | - |
| 1777624851 | 4.44° C | 83% | 1011.7 hPa | 0 mm | - | 0 W/m² | - |
* Rain latest hour (hover to see other rain measurements)
** Current wind speed in m/s (hover to see current wind gust speed)